createdAt,value
2023-04-06T00:04:58.800Z,71.35
2023-04-06T00:09:58.742Z,72.63
2023-04-06T00:14:58.672Z,74.29
2023-04-06T00:19:58.612Z,73.66
2023-04-06T00:24:58.548Z,72.21
2023-04-06T00:29:58.485Z,72.11
2023-04-06T00:34:58.412Z,72.21
2023-04-06T00:39:58.360Z,74.60
2023-04-06T00:44:58.290Z,74.49
2023-04-06T00:49:58.230Z,74.84
2023-04-06T00:54:58.157Z,73.80
2023-04-06T00:59:58.096Z,73.18
2023-04-06T01:04:58.072Z,73.18
2023-04-06T01:09:57.981Z,73.56
2023-04-06T01:14:57.898Z,73.35
2023-04-06T01:19:57.841Z,73.66
2023-04-06T01:24:57.768Z,75.73
2023-04-06T01:29:57.706Z,75.77
2023-04-06T01:34:57.644Z,74.73
2023-04-06T01:39:57.601Z,74.11
2023-04-06T01:44:57.506Z,73.90
2023-04-06T01:49:57.441Z,73.90
2023-04-06T01:54:57.366Z,73.69
2023-04-06T01:59:57.312Z,74.56
2023-04-06T02:04:57.257Z,74.77
2023-04-06T02:09:57.191Z,75.18
2023-04-06T02:14:57.109Z,73.84
2023-04-06T02:19:57.048Z,72.80
2023-04-06T02:24:56.974Z,72.80
2023-04-06T02:29:56.922Z,72.90
2023-04-06T02:34:56.840Z,73.11
2023-04-06T02:39:56.787Z,74.60
2023-04-06T02:44:56.718Z,76.50
2023-04-06T02:49:56.655Z,76.95
2023-04-06T02:54:56.579Z,77.16
2023-04-06T02:59:56.525Z,77.61
2023-04-06T03:04:56.458Z,77.40
2023-04-06T03:09:56.403Z,78.06
2023-04-06T03:14:56.323Z,77.85
2023-04-06T03:19:56.255Z,77.16
2023-04-06T03:24:56.190Z,76.74
2023-04-06T03:29:56.137Z,77.37
2023-04-06T03:34:56.065Z,76.95
2023-04-06T03:39:56.003Z,76.98
2023-04-06T03:44:55.933Z,77.72
2023-04-06T03:49:55.872Z,77.92
2023-04-06T03:54:55.807Z,78.79
2023-04-06T03:59:55.746Z,79.31
2023-04-06T04:04:55.694Z,79.87
2023-04-06T04:09:55.611Z,79.87
2023-04-06T04:14:55.553Z,80.29
2023-04-06T04:19:55.482Z,80.84
2023-04-06T04:24:55.586Z,80.53
2023-04-06T04:29:55.362Z,80.63
2023-04-06T04:34:55.308Z,80.43
2023-04-06T04:39:55.239Z,81.05
2023-04-06T04:44:55.297Z,81.40
2023-04-06T04:49:55.123Z,81.61
2023-04-06T04:54:55.058Z,81.71
2023-04-06T04:59:57.327Z,81.46
2023-04-06T05:04:54.935Z,81.15
2023-04-06T05:09:54.869Z,81.15
2023-04-06T05:14:54.813Z,80.60
2023-04-06T05:19:54.741Z,78.72
2023-04-06T05:24:54.677Z,75.15
2023-04-06T05:29:57.334Z,75.08
2023-04-06T05:34:54.552Z,74.98
2023-04-06T05:39:54.474Z,73.77
2023-04-06T05:44:54.420Z,73.56
2023-04-06T05:49:54.353Z,74.53
2023-04-06T05:54:54.285Z,74.60
2023-04-06T05:59:54.228Z,73.32
2023-04-06T06:04:54.196Z,69.35
2023-04-06T06:09:54.091Z,68.49
2023-04-06T06:14:54.033Z,67.43
2023-04-06T06:19:54.033Z,66.16
2023-04-06T06:24:53.907Z,65.12
2023-04-06T06:29:53.832Z,63.95
2023-04-06T06:34:53.775Z,63.20
2023-04-06T06:39:53.714Z,61.71
2023-04-06T06:44:53.665Z,60.35
2023-04-06T06:49:53.581Z,58.20
2023-04-06T06:54:55.466Z,52.46
2023-04-06T06:59:53.461Z,47.23
2023-04-06T07:04:53.562Z,44.50
2023-04-06T07:09:53.320Z,45.70
2023-04-06T07:14:53.264Z,44.36
2023-04-06T07:19:53.203Z,41.66
2023-04-06T07:24:53.123Z,40.30
2023-04-06T07:29:53.047Z,38.36
2023-04-06T07:34:52.989Z,38.04
2023-04-06T07:39:52.917Z,37.90
2023-04-06T07:44:52.858Z,40.59
2023-04-06T07:49:52.785Z,36.67
2023-04-06T07:54:52.732Z,36.07
2023-04-06T07:59:52.657Z,35.36
2023-04-06T08:04:52.785Z,35.54
2023-04-06T08:09:52.525Z,33.61
2023-04-06T08:14:52.483Z,33.66
2023-04-06T08:19:52.392Z,32.44
2023-04-06T08:24:52.342Z,31.51
2023-04-06T08:29:52.271Z,30.56
2023-04-06T08:34:52.213Z,28.10
2023-04-06T08:39:52.132Z,31.56
2023-04-06T08:44:52.187Z,29.63
2023-04-06T08:49:52.017Z,29.79
2023-04-06T08:54:51.932Z,28.10
2023-04-06T08:59:51.889Z,28.02
2023-04-06T09:04:51.888Z,28.67
2023-04-06T09:09:51.752Z,29.33
2023-04-06T09:14:51.669Z,26.73
2023-04-06T09:19:51.625Z,26.94
2023-04-06T09:24:51.552Z,25.94
2023-04-06T09:29:51.489Z,25.74
2023-04-06T09:34:51.408Z,24.90
2023-04-06T09:39:51.350Z,24.08
2023-04-06T09:44:51.294Z,24.51
2023-04-06T09:49:51.223Z,24.71
2023-04-06T09:54:51.157Z,25.46
2023-04-06T09:59:51.207Z,25.16
2023-04-06T10:04:51.018Z,26.92
2023-04-06T10:09:50.971Z,26.54
2023-04-06T10:14:50.891Z,27.17
2023-04-06T10:19:50.834Z,27.84
2023-04-06T10:24:50.752Z,29.46
2023-04-06T10:29:50.712Z,28.07
2023-04-06T10:34:50.630Z,26.38
2023-04-06T10:39:50.582Z,26.84
2023-04-06T10:44:50.499Z,28.38
2023-04-06T10:49:50.445Z,27.07
2023-04-06T10:54:50.637Z,28.44
2023-04-06T10:59:50.318Z,29.48
2023-04-06T11:04:50.238Z,29.38
2023-04-06T11:10:00.583Z,29.66
2023-04-06T11:14:51.129Z,30.40
2023-04-06T11:19:50.039Z,30.03
2023-04-06T11:24:49.989Z,31.23
2023-04-06T11:29:49.908Z,29.55
2023-04-06T11:34:49.845Z,29.98
2023-04-06T11:39:49.785Z,31.76
2023-04-06T11:44:49.709Z,31.46
2023-04-06T11:49:49.654Z,32.31
2023-04-06T11:54:49.583Z,32.04
2023-04-06T11:59:49.535Z,33.50
2023-04-06T12:04:49.672Z,32.72
2023-04-06T12:09:49.388Z,35.15
2023-04-06T12:14:49.325Z,34.14
2023-04-06T12:19:49.258Z,35.15
2023-04-06T12:24:49.209Z,34.85
2023-04-06T12:29:49.138Z,33.55
2023-04-06T12:34:49.082Z,34.41
2023-04-06T12:39:49.010Z,33.22
2023-04-06T12:44:48.938Z,35.29
2023-04-06T12:49:48.949Z,35.42
2023-04-06T12:54:50.125Z,36.12
2023-04-06T12:59:48.951Z,37.34
2023-04-06T13:04:48.671Z,38.22
2023-04-06T13:09:48.613Z,34.74
2023-04-06T13:14:48.561Z,34.27
2023-04-06T13:19:48.483Z,35.42
2023-04-06T13:24:48.420Z,35.93
2023-04-06T13:29:48.349Z,37.29
2023-04-06T13:34:48.286Z,35.83
2023-04-06T13:39:48.219Z,36.44
2023-04-06T13:44:48.157Z,36.42
2023-04-06T13:49:48.090Z,35.79
2023-04-06T13:54:48.027Z,36.57
2023-04-06T13:59:47.984Z,37.61
2023-04-06T14:04:47.899Z,37.83
2023-04-06T14:09:47.822Z,37.61
2023-04-06T14:14:47.753Z,36.70
2023-04-06T14:19:47.687Z,36.08
2023-04-06T14:24:47.624Z,36.70
2023-04-06T14:29:47.559Z,37.51
2023-04-06T14:34:47.497Z,37.53
2023-04-06T14:39:47.431Z,37.63
2023-04-06T14:44:47.384Z,37.20
2023-04-06T14:49:47.302Z,37.51
2023-04-06T14:54:47.244Z,36.90
2023-04-06T14:59:47.215Z,37.61
2023-04-06T15:04:47.091Z,38.22
2023-04-06T15:09:47.033Z,37.41
2023-04-06T15:14:46.970Z,37.81
2023-04-06T15:19:46.906Z,37.31
2023-04-06T15:24:46.844Z,36.51
2023-04-06T15:29:46.775Z,37.02
2023-04-06T15:34:46.744Z,37.42
2023-04-06T15:39:46.643Z,37.22
2023-04-06T15:44:46.586Z,37.83
2023-04-06T15:49:46.517Z,40.28
2023-04-06T15:54:46.449Z,37.53
2023-04-06T15:59:46.390Z,38.06
2023-04-06T16:04:46.338Z,37.63
2023-04-06T16:09:46.250Z,38.15
2023-04-06T16:14:46.179Z,39.99
2023-04-06T16:19:46.122Z,40.50
2023-04-06T16:24:46.055Z,39.89
2023-04-06T16:29:45.987Z,40.22
2023-04-06T16:34:45.913Z,40.11
2023-04-06T16:39:45.856Z,40.01
2023-04-06T16:44:45.784Z,39.93
2023-04-06T16:49:45.728Z,40.34
2023-04-06T16:54:45.679Z,40.34
2023-04-06T16:59:45.591Z,41.18
2023-04-06T17:04:45.517Z,41.27
2023-04-06T17:09:45.478Z,41.18
2023-04-06T17:14:45.388Z,41.91
2023-04-06T17:19:45.329Z,42.42
2023-04-06T17:24:45.252Z,43.06
2023-04-06T17:29:45.208Z,43.46
2023-04-06T17:34:45.123Z,43.36
2023-04-06T17:39:45.075Z,43.59
2023-04-06T17:44:44.988Z,43.07
2023-04-06T17:49:44.941Z,43.60
2023-04-06T17:54:44.857Z,43.81
2023-04-06T17:59:46.096Z,44.14
2023-04-06T18:04:44.801Z,44.24
2023-04-06T18:09:44.665Z,44.67
2023-04-06T18:14:44.606Z,44.98
2023-04-06T18:19:44.543Z,45.41
2023-04-06T18:24:44.472Z,46.53
2023-04-06T18:29:44.432Z,47.48
2023-04-06T18:34:44.338Z,47.79
2023-04-06T18:39:44.274Z,47.79
2023-04-06T18:44:44.200Z,48.22
2023-04-06T18:49:44.155Z,48.12
2023-04-06T18:54:44.073Z,48.73
2023-04-06T18:59:44.025Z,49.16
2023-04-06T19:04:44.124Z,49.89
2023-04-06T19:09:43.906Z,50.71
2023-04-06T19:14:43.810Z,51.45
2023-04-06T19:19:43.766Z,52.40
2023-04-06T19:24:43.684Z,53.32
2023-04-06T19:29:43.624Z,54.17
2023-04-06T19:34:43.552Z,54.79
2023-04-06T19:39:43.495Z,55.23
2023-04-06T19:44:43.417Z,55.23
2023-04-06T19:49:43.365Z,55.95
2023-04-06T19:54:43.294Z,56.90
2023-04-06T19:59:43.232Z,57.34
2023-04-06T20:04:43.298Z,57.64
2023-04-06T20:09:43.126Z,58.50
2023-04-06T20:14:43.025Z,59.45
2023-04-06T20:19:42.974Z,59.79
2023-04-06T20:24:42.897Z,60.02
2023-04-06T20:29:42.843Z,60.43
2023-04-06T20:34:42.760Z,59.91
2023-04-06T20:39:42.718Z,60.12
2023-04-06T20:44:42.631Z,60.66
2023-04-06T20:49:42.574Z,60.87
2023-04-06T20:54:42.495Z,61.18
2023-04-06T20:59:42.440Z,60.56
2023-04-06T21:04:42.534Z,59.94
2023-04-06T21:09:42.313Z,59.63
2023-04-06T21:14:42.234Z,59.43
2023-04-06T21:19:42.175Z,59.02
2023-04-06T21:24:42.149Z,59.87
2023-04-06T21:29:42.204Z,59.77
2023-04-06T21:34:42.221Z,59.87
2023-04-06T21:39:42.224Z,60.18
2023-04-06T21:44:42.235Z,60.52
2023-04-06T21:49:42.240Z,60.72
2023-04-06T21:54:42.279Z,61.24
2023-04-06T21:59:41.657Z,61.68
2023-04-06T22:04:41.770Z,61.78
2023-04-06T22:09:41.518Z,62.33
2023-04-06T22:14:41.453Z,62.64
2023-04-06T22:19:41.386Z,63.05
2023-04-06T22:24:41.332Z,62.75
2023-04-06T22:29:41.283Z,62.98
2023-04-06T22:34:41.208Z,62.98
2023-04-06T22:39:41.130Z,63.29
2023-04-06T22:44:41.066Z,63.08
2023-04-06T22:49:41.002Z,62.87
2023-04-06T22:54:40.938Z,62.87
2023-04-06T22:59:40.881Z,62.87
2023-04-06T23:04:40.804Z,62.87
2023-04-06T23:09:40.747Z,63.32
2023-04-06T23:14:40.680Z,63.63
2023-04-06T23:19:40.618Z,63.73
2023-04-06T23:24:40.555Z,63.94
2023-04-06T23:29:40.493Z,64.38
2023-04-06T23:34:40.431Z,64.69
2023-04-06T23:39:40.360Z,64.80
2023-04-06T23:44:40.296Z,65.24
2023-04-06T23:49:40.227Z,65.97
2023-04-06T23:54:40.168Z,65.76
2023-04-06T23:59:40.102Z,65.69
